Time;durP1;ratioP1;P1;durP2;ratioP2;P2;SDS_P1;SDS_P2;PMS_P1;PMS_P2;Temp;Humidity;BMP_temperature;BMP_pressure;BME280_temperature;BME280_humidity;BME280_pressure;Samples;Min_cycle;Max_cycle;Signal;HPM_P1;HPM_P2
2021/01/28 00:01:39;;;;;;;7.30;6.70;;;3.00;99.90;;;;;;5090635;28;20207;-71
2021/01/28 00:04:06;;;;;;;7.33;6.70;;;3.00;99.90;;;;;;5090471;28;20748;-72
2021/01/28 00:06:32;;;;;;;7.77;6.97;;;3.00;99.90;;;;;;5090636;28;20263;-72
2021/01/28 00:08:58;;;;;;;8.37;7.57;;;2.90;99.90;;;;;;5090769;28;20211;-72
2021/01/28 00:11:24;;;;;;;8.23;7.27;;;2.80;99.90;;;;;;5090747;28;20211;-72
2021/01/28 00:13:51;;;;;;;7.60;7.00;;;2.80;99.90;;;;;;5090654;28;20548;-72
2021/01/28 00:16:18;;;;;;;7.90;7.17;;;2.90;99.90;;;;;;5090410;28;20203;-72
2021/01/28 00:18:44;;;;;;;8.60;7.90;;;3.00;99.90;;;;;;5090590;28;20207;-71
2021/01/28 00:21:10;;;;;;;7.20;6.50;;;2.90;99.90;;;;;;5090590;28;20257;-71
2021/01/28 00:23:36;;;;;;;8.27;7.57;;;2.90;99.90;;;;;;5090184;28;20223;-71
2021/01/28 00:26:03;;;;;;;8.07;7.37;;;3.00;99.90;;;;;;5089465;28;20203;-71
2021/01/28 00:28:29;;;;;;;7.87;7.27;;;3.00;99.90;;;;;;5090042;28;20207;-71
2021/01/28 00:30:55;;;;;;;8.30;7.60;;;3.00;99.90;;;;;;5090210;28;20661;-71
2021/01/28 00:33:25;;;;;;;8.03;7.33;;;2.90;99.90;;;;;;5090254;28;20210;-71
2021/01/28 00:35:53;;;;;;;8.13;7.43;;;2.90;99.90;;;;;;5090192;28;20216;-71
2021/01/28 00:38:22;;;;;;;8.20;7.40;;;3.00;99.90;;;;;;5090000;28;20247;-71
2021/01/28 00:40:51;;;;;;;7.73;7.13;;;3.00;99.90;;;;;;5089666;28;20298;-71
2021/01/28 00:43:17;;;;;;;9.00;8.20;;;2.80;99.90;;;;;;5089800;28;20231;-71
2021/01/28 00:45:44;;;;;;;8.83;7.93;;;2.80;99.90;;;;;;5089814;28;20217;-71
2021/01/28 00:48:11;;;;;;;8.37;7.67;;;2.80;99.90;;;;;;5089691;28;20210;-71
2021/01/28 00:50:40;;;;;;;8.50;7.77;;;2.90;99.90;;;;;;5089772;28;20207;-71
2021/01/28 00:53:07;;;;;;;8.63;7.83;;;2.80;99.90;;;;;;5089599;28;20207;-71
2021/01/28 00:55:33;;;;;;;8.03;7.33;;;2.80;99.90;;;;;;5089786;28;20206;-72
2021/01/28 00:57:59;;;;;;;8.40;7.70;;;2.90;99.90;;;;;;5089393;28;20600;-71
2021/01/28 01:00:29;;;;;;;9.27;8.47;;;2.80;99.90;;;;;;5089459;28;20226;-71
2021/01/28 01:02:56;;;;;;;8.87;8.07;;;2.70;99.90;;;;;;5089565;28;20211;-71
2021/01/28 01:05:24;;;;;;;9.37;8.47;;;2.70;99.90;;;;;;5088991;28;20926;-71
2021/01/28 01:07:52;;;;;;;9.43;8.53;;;2.70;99.90;;;;;;5089349;28;20213;-71
2021/01/28 01:10:28;;;;;;;9.13;8.33;;;2.60;99.90;;;;;;5089425;28;20210;-71
2021/01/28 01:12:55;;;;;;;9.37;8.47;;;2.60;99.90;;;;;;5089606;28;20195;-71
2021/01/28 01:15:21;;;;;;;9.23;8.43;;;2.70;99.90;;;;;;5089182;28;20422;-72
2021/01/28 01:17:47;;;;;;;9.23;8.43;;;2.60;99.90;;;;;;5089348;28;20203;-71
2021/01/28 01:20:16;;;;;;;9.03;8.23;;;2.60;99.90;;;;;;5089273;28;20351;-71
2021/01/28 01:22:43;;;;;;;10.03;9.10;;;2.60;99.90;;;;;;5089011;28;20203;-71
2021/01/28 01:25:12;;;;;;;10.37;9.27;;;2.70;99.90;;;;;;5089133;28;20238;-71
2021/01/28 01:27:38;;;;;;;10.37;9.37;;;2.70;99.90;;;;;;5088822;28;20705;-71
2021/01/28 01:30:05;;;;;;;10.30;9.30;;;2.80;99.90;;;;;;5088954;28;20207;-71
2021/01/28 01:32:32;;;;;;;10.30;9.30;;;2.80;99.90;;;;;;5088879;28;20790;-71
2021/01/28 01:34:58;;;;;;;11.30;10.10;;;2.80;99.90;;;;;;5088863;28;20730;-71
2021/01/28 01:37:24;;;;;;;12.13;10.23;;;2.70;99.90;;;;;;5087930;28;20210;-71
2021/01/28 01:39:50;;;;;;;10.77;9.67;;;2.80;99.90;;;;;;5088869;28;20212;-71
2021/01/28 01:42:18;;;;;;;12.70;10.70;;;2.70;99.90;;;;;;5089001;28;20236;-70
2021/01/28 01:44:44;;;;;;;11.43;10.23;;;2.70;99.90;;;;;;5088617;28;20227;-71
2021/01/28 01:47:25;;;;;;;12.83;11.13;;;2.70;99.90;;;;;;5088582;28;20207;-71
2021/01/28 01:49:52;;;;;;;13.27;11.37;;;2.70;99.90;;;;;;5088926;28;20202;-71
2021/01/28 01:52:30;;;;;;;13.30;11.90;;;2.60;99.90;;;;;;5088361;28;20953;-71
2021/01/28 01:54:57;;;;;;;14.37;12.40;;;2.80;99.90;;;;;;5088924;28;20187;-71
2021/01/28 01:57:29;;;;;;;13.63;12.17;;;2.80;99.90;;;;;;5088326;28;20249;-70
2021/01/28 02:00:02;;;;;;;13.50;12.10;;;2.80;99.90;;;;;;5088638;28;20202;-70
2021/01/28 02:02:33;;;;;;;14.50;11.70;;;2.80;99.90;;;;;;5088623;28;20530;-71
2021/01/28 02:05:05;;;;;;;14.17;12.20;;;2.80;99.90;;;;;;5088444;28;20218;-71
2021/01/28 02:07:33;;;;;;;14.80;11.80;;;2.80;99.90;;;;;;5088135;28;20688;-71
2021/01/28 02:09:59;;;;;;;14.50;12.57;;;2.80;99.90;;;;;;5095127;28;20661;-70
2021/01/28 02:12:27;;;;;;;14.27;12.13;;;2.90;99.90;;;;;;5097092;28;20272;-70
2021/01/28 02:14:54;;;;;;;13.53;12.13;;;2.80;99.90;;;;;;5087802;28;20256;-70
2021/01/28 02:17:23;;;;;;;17.17;13.13;;;2.90;99.90;;;;;;5088144;28;20209;-70
2021/01/28 02:20:13;;;;;;;15.67;12.57;;;2.90;99.90;;;;;;5088120;28;20607;-71
2021/01/28 02:22:54;;;;;;;14.67;13.07;;;2.90;99.90;;;;;;5088407;28;20194;-71
2021/01/28 02:25:25;;;;;;;14.70;12.73;;;2.90;99.90;;;;;;5088295;28;20219;-71
2021/01/28 02:27:55;;;;;;;14.33;12.83;;;3.00;99.90;;;;;;5087992;28;20213;-71
2021/01/28 02:30:24;;;;;;;14.37;12.33;;;3.00;99.90;;;;;;5088094;28;20211;-71
2021/01/28 02:32:51;;;;;;;13.90;11.37;;;3.00;99.90;;;;;;5091152;28;20302;-71
2021/01/28 02:35:19;;;;;;;13.67;11.57;;;3.00;99.90;;;;;;5087688;28;20222;-70
2021/01/28 02:37:47;;;;;;;12.57;11.27;;;3.00;99.90;;;;;;5087962;28;20213;-71
2021/01/28 02:40:14;;;;;;;12.60;11.30;;;3.00;99.90;;;;;;5087579;28;20206;-71
2021/01/28 02:42:41;;;;;;;13.63;12.00;;;3.00;99.90;;;;;;5087999;28;20202;-71
2021/01/28 02:45:10;;;;;;;15.13;12.03;;;3.00;99.90;;;;;;5087489;28;20234;-71
2021/01/28 02:47:36;;;;;;;13.03;11.37;;;3.10;99.90;;;;;;5087513;28;20232;-70
2021/01/28 02:50:03;;;;;;;13.90;11.50;;;3.10;99.90;;;;;;5091345;28;20207;-70
2021/01/28 02:52:29;;;;;;;11.63;10.43;;;3.10;99.90;;;;;;5091585;28;20202;-70
2021/01/28 02:54:55;;;;;;;12.40;11.10;;;3.10;99.90;;;;;;5091569;28;20214;-70
2021/01/28 02:57:22;;;;;;;11.33;10.13;;;3.10;99.90;;;;;;5091007;28;20783;-70
2021/01/28 02:59:49;;;;;;;12.33;11.03;;;3.20;99.90;;;;;;5091847;28;20221;-70
2021/01/28 03:02:18;;;;;;;12.73;11.37;;;3.20;99.90;;;;;;5090588;28;20218;-70
2021/01/28 03:04:45;;;;;;;13.27;10.07;;;3.20;99.90;;;;;;5091358;28;20234;-70
2021/01/28 03:07:14;;;;;;;11.93;10.63;;;3.20;99.90;;;;;;5091711;28;20227;-71
2021/01/28 03:09:41;;;;;;;11.70;10.50;;;3.20;99.90;;;;;;5091872;28;20263;-71
2021/01/28 03:12:09;;;;;;;12.07;10.43;;;3.20;99.90;;;;;;5091662;28;20279;-70
2021/01/28 03:14:35;;;;;;;13.57;11.43;;;3.20;99.90;;;;;;5091428;28;20222;-70
2021/01/28 03:17:03;;;;;;;12.50;10.73;;;3.20;99.90;;;;;;5091637;28;20210;-70
2021/01/28 03:19:29;;;;;;;13.63;11.57;;;3.20;99.90;;;;;;5091401;28;20226;-70
2021/01/28 03:21:56;;;;;;;13.23;11.67;;;3.20;99.90;;;;;;5091438;28;20199;-71
2021/01/28 03:24:22;;;;;;;13.80;11.40;;;3.20;99.90;;;;;;5091034;28;20233;-71
2021/01/28 03:26:48;;;;;;;12.53;11.27;;;3.20;99.90;;;;;;5091451;28;20206;-70
2021/01/28 03:29:15;;;;;;;12.70;11.40;;;3.30;99.90;;;;;;5091001;28;20207;-71
2021/01/28 03:31:42;;;;;;;14.47;12.27;;;3.30;99.90;;;;;;5091374;28;20203;-70
2021/01/28 03:34:09;;;;;;;14.13;11.77;;;3.30;99.90;;;;;;5091125;28;20268;-70
2021/01/28 03:36:36;;;;;;;13.57;12.17;;;3.30;99.90;;;;;;5091244;28;20199;-70
2021/01/28 03:39:03;;;;;;;13.97;12.23;;;3.30;99.90;;;;;;5091128;28;20621;-70
2021/01/28 03:41:29;;;;;;;14.33;11.93;;;3.20;99.90;;;;;;5091037;28;20203;-70
2021/01/28 03:43:56;;;;;;;14.37;12.23;;;3.20;99.90;;;;;;5090924;28;20230;-70
2021/01/28 03:46:22;;;;;;;14.97;12.97;;;3.20;99.90;;;;;;5091129;28;20218;-71
2021/01/28 03:48:48;;;;;;;15.40;13.30;;;3.20;99.90;;;;;;5091102;28;20202;-71
2021/01/28 03:51:15;;;;;;;14.47;12.37;;;3.20;99.90;;;;;;5090822;28;20203;-71
2021/01/28 03:53:41;;;;;;;14.60;12.13;;;3.20;99.90;;;;;;5090790;28;20215;-70
2021/01/28 03:56:07;;;;;;;15.53;13.00;;;3.30;99.90;;;;;;5090909;28;20593;-70
2021/01/28 03:58:34;;;;;;;15.43;12.93;;;3.30;99.90;;;;;;5090535;28;20258;-70
2021/01/28 04:01:00;;;;;;;14.87;12.93;;;3.30;99.90;;;;;;5089560;28;20207;-70
2021/01/28 04:03:26;;;;;;;14.73;13.13;;;3.30;99.90;;;;;;5090578;28;20203;-71
2021/01/28 04:05:52;;;;;;;16.23;12.93;;;3.20;99.90;;;;;;5096053;28;20221;-70
2021/01/28 04:08:19;;;;;;;16.30;12.73;;;3.30;99.90;;;;;;5098042;28;20191;-70
2021/01/28 04:10:46;;;;;;;15.97;12.87;;;3.30;99.90;;;;;;5100635;28;20536;-70
2021/01/28 04:13:12;;;;;;;16.37;13.67;;;3.30;99.90;;;;;;5090969;28;20202;-71
2021/01/28 04:15:39;;;;;;;17.23;12.97;;;3.30;99.90;;;;;;5091141;28;20202;-70
2021/01/28 04:18:05;;;;;;;16.77;14.03;;;3.40;99.90;;;;;;5107028;28;20207;-70
2021/01/28 04:20:35;;;;;;;15.13;12.73;;;3.40;99.90;;;;;;5100229;28;20205;-70
2021/01/28 04:23:01;;;;;;;17.23;13.17;;;3.40;99.90;;;;;;5106913;28;20209;-70
2021/01/28 04:25:29;;;;;;;16.20;13.40;;;3.40;99.90;;;;;;5106945;28;20393;-70
2021/01/28 04:27:57;;;;;;;15.63;13.23;;;3.40;99.90;;;;;;5106756;27;20209;-70
2021/01/28 04:30:28;;;;;;;20.87;16.77;;;3.40;99.90;;;;;;5099988;28;20637;-71
2021/01/28 04:32:54;;;;;;;21.97;18.80;;;3.40;99.90;;;;;;5094946;28;20247;-71
2021/01/28 04:35:21;;;;;;;17.70;14.33;;;3.50;99.90;;;;;;5094321;28;20206;-69
2021/01/28 04:37:47;;;;;;;16.40;13.47;;;3.50;99.90;;;;;;5086120;28;20214;-70
2021/01/28 04:40:22;;;;;;;17.63;13.77;;;3.50;99.90;;;;;;5086128;28;20211;-70
2021/01/28 04:42:49;;;;;;;17.23;13.73;;;3.50;99.90;;;;;;5092431;28;20187;-70
2021/01/28 04:45:20;;;;;;;16.90;13.57;;;3.50;99.90;;;;;;5096081;27;20608;-70
2021/01/28 04:47:56;;;;;;;18.80;13.60;;;3.50;99.90;;;;;;5097125;28;20586;-70
2021/01/28 04:50:26;;;;;;;17.57;13.67;;;3.50;99.90;;;;;;5095302;28;20606;-70
2021/01/28 04:52:56;;;;;;;18.00;13.63;;;3.60;99.90;;;;;;5089116;28;20210;-70
2021/01/28 04:55:33;;;;;;;17.83;14.03;;;3.60;99.90;;;;;;5085590;28;20198;-70
2021/01/28 04:58:00;;;;;;;18.07;13.20;;;3.60;99.90;;;;;;5085574;28;20265;-70
2021/01/28 05:00:27;;;;;;;18.87;14.53;;;3.60;99.90;;;;;;5096968;28;20553;-70
2021/01/28 05:03:00;;;;;;;18.60;14.47;;;3.70;99.90;;;;;;5099966;28;20586;-70
2021/01/28 05:05:27;;;;;;;17.07;13.67;;;3.70;99.90;;;;;;5099307;28;20260;-70
2021/01/28 05:07:53;;;;;;;17.00;13.50;;;3.70;99.90;;;;;;5100983;28;20198;-70
2021/01/28 05:10:39;;;;;;;22.27;14.97;;;3.70;99.90;;;;;;5109628;27;20205;-71
2021/01/28 05:13:06;;;;;;;17.30;13.10;;;3.70;99.90;;;;;;5116876;27;20277;-71
2021/01/28 05:15:35;;;;;;;18.43;14.20;;;3.80;99.90;;;;;;5118990;27;20193;-70
2021/01/28 05:18:11;;;;;;;19.23;14.17;;;3.80;99.90;;;;;;5119571;27;20205;-71
2021/01/28 05:20:37;;;;;;;19.07;13.97;;;3.80;99.90;;;;;;5120219;27;20199;-70
2021/01/28 05:23:09;;;;;;;19.33;14.53;;;3.80;99.90;;;;;;5117456;27;20206;-71
2021/01/28 05:25:38;;;;;;;18.70;14.23;;;3.80;99.90;;;;;;5117425;27;20210;-71
2021/01/28 05:28:28;;;;;;;20.60;14.90;;;3.70;99.90;;;;;;5117466;27;20230;-71
2021/01/28 05:30:55;;;;;;;19.57;14.10;;;3.80;99.90;;;;;;5112121;27;20189;-71
2021/01/28 05:33:32;;;;;;;19.27;14.27;;;3.90;99.90;;;;;;5119028;27;20204;-71
2021/01/28 05:36:05;;;;;;;21.27;15.03;;;3.90;99.90;;;;;;5118365;27;20561;-71
2021/01/28 05:38:36;;;;;;;21.23;15.17;;;3.90;99.90;;;;;;5106910;27;20197;-70
2021/01/28 05:41:03;;;;;;;26.57;17.67;;;3.90;99.90;;;;;;5117312;27;20193;-71
2021/01/28 05:43:34;;;;;;;20.37;15.70;;;3.90;99.90;;;;;;5114445;27;20209;-71
2021/01/28 05:46:18;;;;;;;22.87;16.10;;;3.90;99.90;;;;;;5117007;27;20632;-70
2021/01/28 05:48:45;;;;;;;28.37;18.57;;;3.90;99.90;;;;;;5118429;27;20726;-70
2021/01/28 05:51:15;;;;;;;20.07;14.63;;;3.90;99.90;;;;;;5116320;27;20198;-71
2021/01/28 05:53:58;;;;;;;18.83;14.70;;;3.90;99.90;;;;;;5119051;27;20197;-71
2021/01/28 05:56:26;;;;;;;21.63;16.13;;;3.90;99.90;;;;;;5118594;27;20190;-71
2021/01/28 05:58:59;;;;;;;20.93;15.20;;;3.90;99.90;;;;;;5108770;27;20238;-71
2021/01/28 06:01:38;;;;;;;19.20;14.67;;;3.80;99.90;;;;;;5115518;27;20193;-71
2021/01/28 06:04:33;;;;;;;20.30;14.90;;;3.90;99.90;;;;;;5116009;27;20240;-71
2021/01/28 06:07:25;;;;;;;19.90;14.10;;;4.00;99.90;;;;;;5114682;27;20190;-70
2021/01/28 06:10:12;;;;;;;20.57;14.10;;;3.90;99.90;;;;;;5114372;27;20250;-71
2021/01/28 06:12:55;;;;;;;23.07;16.03;;;4.00;99.90;;;;;;5116969;27;20259;-71
2021/01/28 06:15:37;;;;;;;20.63;14.73;;;4.00;99.90;;;;;;5114595;27;20206;-71
2021/01/28 06:18:33;;;;;;;19.27;13.73;;;4.00;99.90;;;;;;5115982;27;20194;-71
2021/01/28 06:21:27;;;;;;;20.53;14.10;;;4.00;99.90;;;;;;5115465;28;20190;-71
2021/01/28 06:24:28;;;;;;;20.87;14.30;;;4.00;99.90;;;;;;5082775;28;20909;-71
2021/01/28 06:27:06;;;;;;;20.57;13.53;;;4.00;99.90;;;;;;5115544;28;20204;-72
2021/01/28 06:29:57;;;;;;;20.17;14.07;;;4.00;99.90;;;;;;5116360;28;20189;-71
2021/01/28 06:32:57;;;;;;;20.83;14.60;;;4.00;99.90;;;;;;5117732;28;20957;-71
2021/01/28 06:35:38;;;;;;;19.70;14.07;;;4.00;99.90;;;;;;5118096;28;20219;-71
2021/01/28 06:38:20;;;;;;;20.73;14.13;;;4.10;99.90;;;;;;5114762;28;20193;-71
2021/01/28 06:40:49;;;;;;;22.93;16.73;;;4.00;99.90;;;;;;5121151;27;20190;-71
2021/01/28 06:43:21;;;;;;;21.10;14.30;;;4.10;99.90;;;;;;5125239;27;20226;-71
2021/01/28 06:45:56;;;;;;;20.20;14.07;;;4.10;99.90;;;;;;5118446;28;20995;-71
2021/01/28 06:48:28;;;;;;;20.60;13.63;;;4.10;99.90;;;;;;5113662;27;20195;-71
2021/01/28 06:51:02;;;;;;;19.13;13.50;;;4.10;99.90;;;;;;5115136;28;20197;-71
2021/01/28 06:53:43;;;;;;;12.53;9.70;;;4.10;99.90;;;;;;5116180;27;20190;-70
2021/01/28 06:56:15;;;;;;;9.43;7.97;;;4.10;99.90;;;;;;5113620;28;20201;-70
2021/01/28 06:59:01;;;;;;;7.77;6.57;;;4.00;99.90;;;;;;5116341;27;20230;-71
2021/01/28 07:01:34;;;;;;;5.77;4.60;;;4.00;99.90;;;;;;5114497;28;20251;-71
2021/01/28 07:04:09;;;;;;;4.13;3.73;;;4.00;99.90;;;;;;5113367;27;20214;-70
2021/01/28 07:06:44;;;;;;;3.27;2.77;;;4.00;99.90;;;;;;5113226;28;20244;-70
2021/01/28 07:09:25;;;;;;;3.07;2.77;;;3.90;99.90;;;;;;5110070;28;20246;-71
2021/01/28 07:11:55;;;;;;;3.43;3.13;;;3.80;99.90;;;;;;5113699;28;20194;-71
2021/01/28 07:14:22;;;;;;;3.30;3.00;;;3.80;99.90;;;;;;5119185;27;20194;-70
2021/01/28 07:17:00;;;;;;;4.93;3.20;;;3.80;99.90;;;;;;5116223;27;20190;-71
2021/01/28 07:19:30;;;;;;;3.90;3.50;;;3.80;99.90;;;;;;5105078;27;20186;-70
2021/01/28 07:21:57;;;;;;;4.17;3.77;;;3.80;99.90;;;;;;5115102;28;20187;-70
2021/01/28 07:24:30;;;;;;;5.30;4.80;;;3.80;99.90;;;;;;5113938;28;20241;-70
2021/01/28 07:27:00;;;;;;;4.77;4.17;;;3.80;99.90;;;;;;5115994;28;20204;-70
2021/01/28 07:29:51;;;;;;;6.30;4.30;;;3.80;99.90;;;;;;5116956;28;20319;-70
2021/01/28 07:32:50;;;;;;;5.57;4.90;;;3.80;99.90;;;;;;5109033;28;20238;-71
2021/01/28 07:35:46;;;;;;;5.53;4.93;;;3.80;99.90;;;;;;5111101;27;20198;-70
2021/01/28 07:38:47;;;;;;;7.00;5.77;;;3.90;99.90;;;;;;5117471;27;20362;-71
2021/01/28 07:41:29;;;;;;;6.00;5.23;;;3.90;99.90;;;;;;5119445;27;20210;-71
2021/01/28 07:44:30;;;;;;;6.00;5.40;;;3.90;99.90;;;;;;5116508;27;20254;-71
2021/01/28 07:46:58;;;;;;;7.97;6.40;;;3.90;99.90;;;;;;5116632;27;20707;-71
2021/01/28 07:49:27;;;;;;;7.70;5.97;;;3.90;99.90;;;;;;5121507;27;20201;-70
2021/01/28 07:52:29;;;;;;;9.73;6.13;;;3.90;99.90;;;;;;5118365;27;20218;-71
2021/01/28 07:54:56;;;;;;;8.33;6.33;;;3.90;99.90;;;;;;5110662;28;20198;-71
2021/01/28 07:57:44;;;;;;;8.43;6.53;;;3.90;99.90;;;;;;5121113;27;20703;-71
2021/01/28 08:00:13;;;;;;;8.03;6.73;;;4.00;99.90;;;;;;5120684;27;20221;-71
2021/01/28 08:02:40;;;;;;;9.87;7.57;;;4.00;99.90;;;;;;5119241;27;20220;-71
2021/01/28 08:05:12;;;;;;;10.77;7.37;;;4.00;99.90;;;;;;5115327;27;20230;-71
2021/01/28 08:07:42;;;;;;;9.40;7.40;;;4.00;99.90;;;;;;5119094;27;20221;-70
2021/01/28 08:10:24;;;;;;;10.10;7.80;;;4.00;99.90;;;;;;5121868;27;20190;-71
2021/01/28 08:12:53;;;;;;;12.30;8.87;;;4.00;99.90;;;;;;5131008;27;20194;-70
2021/01/28 08:15:22;;;;;;;10.33;7.93;;;4.00;99.90;;;;;;5111888;27;20260;-71
2021/01/28 08:18:00;;;;;;;11.83;8.47;;;4.10;99.90;;;;;;5097796;28;20199;-71
2021/01/28 08:20:29;;;;;;;10.80;8.17;;;4.10;99.90;;;;;;5104308;28;20540;-71
2021/01/28 08:23:00;;;;;;;40.47;36.47;;;4.10;99.90;;;;;;5089875;28;20259;-71
2021/01/28 08:25:30;;;;;;;32.97;29.67;;;4.20;99.90;;;;;;5089568;28;20219;-71
2021/01/28 08:28:06;;;;;;;8.87;7.83;;;4.20;99.90;;;;;;5099631;27;20492;-71
2021/01/28 08:30:33;;;;;;;10.17;7.87;;;4.30;99.90;;;;;;5123244;27;20190;-71
2021/01/28 08:33:00;;;;;;;9.60;7.87;;;4.30;99.90;;;;;;5121834;27;20190;-71
2021/01/28 08:35:31;;;;;;;9.37;7.47;;;4.30;99.90;;;;;;5121197;27;20205;-71
2021/01/28 08:38:13;;;;;;;9.83;7.90;;;4.30;99.90;;;;;;5120849;27;20217;-71
2021/01/28 08:40:41;;;;;;;10.77;7.53;;;4.40;99.90;;;;;;5119564;27;20194;-71
2021/01/28 08:43:11;;;;;;;8.10;7.03;;;4.30;99.90;;;;;;5121126;27;20649;-71
2021/01/28 08:45:38;;;;;;;8.77;7.07;;;4.40;99.90;;;;;;5121344;27;20221;-71
2021/01/28 08:48:08;;;;;;;10.13;7.73;;;4.40;99.90;;;;;;5110472;27;20230;-71
2021/01/28 08:50:34;;;;;;;8.50;7.17;;;4.40;99.90;;;;;;5111915;27;20189;-71
2021/01/28 08:53:03;;;;;;;9.70;8.07;;;4.40;99.90;;;;;;5113278;27;20526;-71
2021/01/28 08:55:34;;;;;;;8.80;7.47;;;4.30;99.90;;;;;;5111535;27;20263;-71
2021/01/28 08:58:07;;;;;;;8.30;7.03;;;4.30;99.90;;;;;;5111827;27;20284;-71
2021/01/28 09:00:37;;;;;;;8.63;7.03;;;4.20;99.90;;;;;;5116387;27;20186;-71
2021/01/28 09:03:04;;;;;;;9.87;7.77;;;4.20;99.90;;;;;;5116201;27;20198;-71
2021/01/28 09:05:33;;;;;;;7.93;6.73;;;4.20;99.90;;;;;;5117948;27;20640;-71
2021/01/28 09:08:01;;;;;;;8.90;7.47;;;4.10;99.90;;;;;;5105113;27;21625;-71
2021/01/28 09:10:35;;;;;;;8.47;7.53;;;4.10;99.90;;;;;;5120738;27;20197;-71
2021/01/28 09:13:16;;;;;;;10.80;7.83;;;4.20;99.90;;;;;;5129865;27;20224;-71
2021/01/28 09:15:43;;;;;;;8.83;7.33;;;4.20;99.90;;;;;;5130145;27;20213;-71
2021/01/28 09:18:21;;;;;;;8.70;7.53;;;4.20;99.90;;;;;;5129944;27;20205;-71
2021/01/28 09:20:48;;;;;;;8.30;7.27;;;4.20;99.90;;;;;;5129974;27;20189;-71
2021/01/28 09:23:16;;;;;;;8.53;7.30;;;4.20;99.90;;;;;;5129814;27;20209;-71
2021/01/28 09:25:45;;;;;;;10.40;7.40;;;4.20;99.90;;;;;;5130143;27;20229;-71
2021/01/28 09:28:14;;;;;;;8.27;7.37;;;4.20;99.90;;;;;;5129880;27;20569;-71
2021/01/28 09:30:43;;;;;;;10.30;8.20;;;4.20;99.90;;;;;;5129670;27;20213;-71
2021/01/28 09:33:27;;;;;;;8.23;7.33;;;4.30;99.90;;;;;;5129511;27;20216;-71
2021/01/28 09:36:15;;;;;;;10.00;7.87;;;4.30;99.90;;;;;;5129628;27;20533;-71
2021/01/28 09:38:56;;;;;;;8.53;7.17;;;4.30;99.90;;;;;;5129267;27;20660;-71
2021/01/28 09:41:28;;;;;;;8.43;7.50;;;4.30;99.90;;;;;;5129578;27;20204;-71
2021/01/28 09:43:54;;;;;;;8.37;7.00;;;4.30;99.90;;;;;;5129172;27;20189;-71
2021/01/28 09:46:29;;;;;;;9.07;7.20;;;4.30;99.90;;;;;;5113640;27;20571;-71
2021/01/28 09:48:59;;;;;;;9.90;7.50;;;4.40;99.90;;;;;;5123063;27;20246;-71
2021/01/28 09:51:31;;;;;;;9.07;7.53;;;4.40;99.90;;;;;;5129109;27;20275;-71
2021/01/28 09:54:01;;;;;;;8.90;6.70;;;4.40;99.90;;;;;;5129048;27;20205;-71
2021/01/28 09:56:29;;;;;;;8.93;7.63;;;4.40;99.90;;;;;;5128922;27;20543;-71
2021/01/28 09:58:55;;;;;;;8.77;6.80;;;4.40;99.90;;;;;;5128258;27;20600;-71
2021/01/28 10:01:21;;;;;;;7.00;6.30;;;4.40;99.90;;;;;;5112705;27;20264;-71
2021/01/28 10:03:47;;;;;;;15.13;13.63;;;4.40;99.90;;;;;;5099872;28;20214;-72
2021/01/28 10:06:14;;;;;;;11.03;9.93;;;4.40;99.90;;;;;;5098947;28;20249;-71
2021/01/28 10:08:40;;;;;;;7.13;6.37;;;4.50;99.90;;;;;;5096401;28;20202;-72
2021/01/28 10:11:07;;;;;;;7.83;6.67;;;4.50;99.90;;;;;;5112836;27;20231;-71
2021/01/28 10:13:34;;;;;;;7.40;6.70;;;4.50;99.90;;;;;;5114384;27;20283;-71
2021/01/28 10:16:00;;;;;;;8.47;6.93;;;4.50;99.90;;;;;;5117421;27;20206;-71
2021/01/28 10:18:27;;;;;;;7.13;6.43;;;4.40;99.90;;;;;;5115853;27;20202;-71
2021/01/28 10:20:53;;;;;;;6.63;5.93;;;4.50;99.90;;;;;;5119835;27;20197;-71
2021/01/28 10:23:19;;;;;;;6.20;5.60;;;4.60;99.90;;;;;;5117345;27;20206;-71
2021/01/28 10:25:46;;;;;;;7.17;5.50;;;4.50;99.90;;;;;;5119000;28;20445;-71
2021/01/28 10:28:12;;;;;;;6.50;5.90;;;4.40;99.90;;;;;;5116271;28;20212;-71
2021/01/28 10:30:39;;;;;;;6.97;6.27;;;4.40;99.90;;;;;;5114653;28;20202;-71
2021/01/28 10:33:06;;;;;;;7.27;5.90;;;4.40;99.90;;;;;;5116559;27;20201;-71
2021/01/28 10:35:34;;;;;;;5.33;4.83;;;4.30;99.90;;;;;;5112726;28;20208;-71
2021/01/28 10:38:01;;;;;;;5.40;4.97;;;4.30;99.90;;;;;;5117769;28;20189;-71
2021/01/28 10:40:28;;;;;;;5.83;5.23;;;4.30;99.90;;;;;;5118951;27;20256;-71
2021/01/28 10:42:57;;;;;;;6.37;5.67;;;4.30;99.90;;;;;;5118526;28;20208;-71
2021/01/28 10:45:29;;;;;;;5.63;5.13;;;4.30;99.90;;;;;;5117706;28;20608;-71
2021/01/28 10:47:56;;;;;;;6.77;5.67;;;4.30;99.90;;;;;;5115779;28;20186;-71
2021/01/28 10:50:24;;;;;;;8.93;6.00;;;4.30;99.90;;;;;;5115574;28;20208;-71
2021/01/28 10:52:52;;;;;;;6.13;5.53;;;4.30;99.90;;;;;;5118306;28;20200;-71
2021/01/28 10:55:19;;;;;;;6.93;5.60;;;4.30;99.90;;;;;;5117166;28;20194;-71
2021/01/28 10:57:45;;;;;;;6.40;5.67;;;4.30;99.90;;;;;;5117504;28;20237;-71
2021/01/28 11:00:14;;;;;;;5.43;4.93;;;4.30;99.90;;;;;;5112213;28;20217;-71
2021/01/28 11:02:40;;;;;;;6.10;5.50;;;4.30;99.90;;;;;;5120298;28;20199;-71
2021/01/28 11:05:12;;;;;;;8.30;7.60;;;4.30;99.90;;;;;;5104408;27;20286;-72
2021/01/28 11:07:39;;;;;;;7.17;6.23;;;4.40;99.90;;;;;;5100479;28;20188;-72
2021/01/28 11:10:06;;;;;;;7.80;7.10;;;4.50;99.90;;;;;;5099183;27;20240;-71
2021/01/28 11:12:32;;;;;;;5.37;4.87;;;4.50;99.90;;;;;;5117231;27;20289;-71
2021/01/28 11:14:59;;;;;;;6.07;5.47;;;4.50;99.90;;;;;;5121168;27;20198;-71
2021/01/28 11:17:25;;;;;;;6.13;5.53;;;4.60;99.90;;;;;;5124677;27;20199;-71
2021/01/28 11:19:51;;;;;;;6.40;5.80;;;4.50;99.90;;;;;;5119669;27;20195;-71
2021/01/28 11:22:18;;;;;;;6.57;5.90;;;4.50;99.90;;;;;;5119821;27;20209;-71
2021/01/28 11:24:46;;;;;;;5.53;5.03;;;4.50;99.90;;;;;;5119995;27;20225;-71
2021/01/28 11:27:12;;;;;;;5.60;5.10;;;4.50;99.90;;;;;;5126089;27;20212;-71
2021/01/28 11:29:39;;;;;;;6.07;5.50;;;4.50;99.90;;;;;;5131693;27;20572;-71
2021/01/28 11:32:05;;;;;;;6.13;5.47;;;4.50;99.90;;;;;;5132138;27;20312;-71
2021/01/28 11:34:32;;;;;;;6.20;5.33;;;4.50;99.90;;;;;;5132235;27;20293;-71
2021/01/28 11:36:58;;;;;;;6.77;5.80;;;4.50;99.90;;;;;;5131931;27;20234;-71
2021/01/28 11:39:26;;;;;;;5.77;5.10;;;4.50;99.90;;;;;;5129180;27;20207;-71
2021/01/28 11:41:52;;;;;;;5.83;5.33;;;4.50;99.90;;;;;;5090837;28;20214;-71
2021/01/28 11:44:19;;;;;;;5.57;5.07;;;4.50;99.90;;;;;;5090656;28;20313;-71
2021/01/28 11:46:45;;;;;;;5.57;5.07;;;4.50;99.90;;;;;;5091001;28;20256;-71
2021/01/28 11:49:13;;;;;;;5.53;5.03;;;4.50;99.90;;;;;;5091053;28;20207;-71
2021/01/28 11:51:39;;;;;;;5.20;4.70;;;4.50;99.90;;;;;;5097952;28;20206;-71
2021/01/28 11:54:06;;;;;;;5.13;4.73;;;4.50;99.90;;;;;;5110729;28;20202;-71
2021/01/28 11:56:33;;;;;;;6.33;5.03;;;4.50;99.90;;;;;;5110861;28;20249;-71
2021/01/28 11:59:00;;;;;;;5.03;4.57;;;4.50;99.90;;;;;;5097672;28;20626;-71
2021/01/28 12:01:28;;;;;;;6.53;4.50;;;4.50;99.90;;;;;;5089845;28;20852;-72
2021/01/28 12:03:54;;;;;;;4.63;4.23;;;4.60;99.90;;;;;;5099799;27;20271;-72
2021/01/28 12:06:21;;;;;;;4.37;4.07;;;4.60;99.90;;;;;;5118632;27;20325;-71
2021/01/28 12:08:47;;;;;;;4.83;4.40;;;4.60;99.90;;;;;;5118380;27;20276;-71
2021/01/28 12:11:14;;;;;;;4.70;4.27;;;4.60;99.90;;;;;;5119977;27;20243;-71
2021/01/28 12:13:41;;;;;;;4.47;4.07;;;4.60;99.90;;;;;;5113817;27;20200;-72
2021/01/28 12:16:09;;;;;;;4.37;3.97;;;4.60;99.90;;;;;;5118320;27;20210;-72
2021/01/28 12:18:36;;;;;;;7.63;4.47;;;4.70;99.90;;;;;;5119825;27;20650;-72
2021/01/28 12:21:02;;;;;;;4.50;4.10;;;4.70;99.90;;;;;;5122487;27;20701;-72
2021/01/28 12:23:28;;;;;;;5.43;4.23;;;4.70;99.90;;;;;;5117331;27;20606;-72
2021/01/28 12:25:55;;;;;;;3.47;3.17;;;4.60;99.90;;;;;;5118903;27;20699;-72
2021/01/28 12:28:22;;;;;;;4.00;3.70;;;4.60;99.90;;;;;;5118131;27;20198;-72
2021/01/28 12:30:49;;;;;;;3.90;3.50;;;4.60;99.90;;;;;;5119233;27;20197;-72
2021/01/28 12:33:15;;;;;;;3.87;3.57;;;4.60;99.90;;;;;;5120195;27;20304;-72
2021/01/28 12:35:42;;;;;;;4.33;3.90;;;4.60;99.90;;;;;;5119422;27;20276;-72
2021/01/28 12:38:09;;;;;;;3.90;3.60;;;4.60;99.90;;;;;;5118550;27;20227;-72
2021/01/28 12:40:35;;;;;;;4.17;3.87;;;4.60;99.90;;;;;;5119203;27;20201;-71
2021/01/28 12:43:02;;;;;;;3.20;3.00;;;4.60;99.90;;;;;;5117492;27;20332;-71
2021/01/28 12:45:29;;;;;;;4.20;3.00;;;4.60;99.90;;;;;;5120472;27;21158;-71
2021/01/28 12:47:56;;;;;;;3.50;3.20;;;4.60;99.90;;;;;;5120776;27;20316;-71
2021/01/28 12:50:23;;;;;;;4.13;3.13;;;4.60;99.90;;;;;;5116071;27;20202;-72
2021/01/28 12:52:49;;;;;;;3.10;2.80;;;4.60;99.90;;;;;;5109936;27;20198;-72
2021/01/28 12:55:16;;;;;;;3.27;2.97;;;4.60;99.90;;;;;;5089494;28;20233;-72
2021/01/28 12:57:44;;;;;;;3.47;3.00;;;4.70;99.90;;;;;;5088277;28;20261;-72
2021/01/28 13:00:14;;;;;;;3.60;3.30;;;4.60;99.90;;;;;;5088993;28;20195;-72
2021/01/28 13:02:41;;;;;;;3.30;3.00;;;4.70;99.90;;;;;;5088408;28;20281;-72
2021/01/28 13:05:09;;;;;;;3.33;3.07;;;4.70;99.90;;;;;;5088731;28;20296;-73